Time;durP1;ratioP1;P1;durP2;ratioP2;P2;SDS_P1;SDS_P2;PMS_P1;PMS_P2;Temp;Humidity;BMP_temperature;BMP_pressure;BME280_temperature;BME280_humidity;BME280_pressure;Samples;Min_cycle;Max_cycle;Signal;HPM_P1;HPM_P2
2022/01/23 00:00:27;;;;;;;5.88;2.88;;;;;;;17.61;39.44;103431.53;4992633;28;20042;-78
2022/01/23 00:02:59;;;;;;;4.85;3.20;;;;;;;17.58;39.46;103432.91;4992264;28;20503;-78
2022/01/23 00:05:27;;;;;;;4.22;2.75;;;;;;;17.61;39.28;103431.53;4992388;28;20034;-79
2022/01/23 00:07:52;;;;;;;5.00;2.88;;;;;;;17.53;39.49;103421.91;4992272;28;20534;-78
2022/01/23 00:10:19;;;;;;;6.45;3.58;;;;;;;17.57;39.35;103425.75;4991318;28;20026;-79
2022/01/23 00:12:50;;;;;;;6.13;2.90;;;;;;;17.59;39.13;103423.50;4992140;28;20034;-78
2022/01/23 00:18:00;;;;;;;5.35;2.95;;;;;;;17.44;39.28;103418.16;4992167;28;20069;-78
2022/01/23 00:20:26;;;;;;;3.95;2.85;;;;;;;17.53;39.23;103426.63;4992278;28;20034;-78
2022/01/23 00:22:57;;;;;;;5.07;2.72;;;;;;;17.55;39.08;103429.94;4992032;28;20034;-78
2022/01/23 00:30:55;;;;;;;6.70;3.78;;;;;;;17.56;38.89;103428.81;4992327;28;20064;-78
2022/01/23 00:33:23;;;;;;;7.50;3.38;;;;;;;17.55;39.02;103419.69;4992031;28;20161;-78
2022/01/23 00:35:49;;;;;;;4.88;3.05;;;;;;;17.55;39.09;103424.41;4992098;28;20093;-78
2022/01/23 00:38:16;;;;;;;5.32;3.67;;;;;;;17.54;38.89;103417.25;4991803;28;20046;-78
2022/01/23 00:40:43;;;;;;;6.15;3.47;;;;;;;17.56;39.05;103410.28;4995707;28;20496;-78
2022/01/23 00:43:30;;;;;;;4.32;3.22;;;;;;;17.58;38.80;103412.75;4995816;28;20084;-78
2022/01/23 00:46:09;;;;;;;5.75;3.35;;;;;;;17.56;39.06;103410.28;4995616;28;20396;-78
2022/01/23 00:48:41;;;;;;;10.30;3.78;;;;;;;17.53;39.02;103413.63;4995854;28;20026;-79
2022/01/23 00:51:06;;;;;;;5.65;4.00;;;;;;;17.54;39.01;103407.00;4995619;28;20027;-79
2022/01/23 00:53:32;;;;;;;5.00;3.78;;;;;;;17.52;39.09;103403.69;4995585;28;20080;-79
2022/01/23 00:55:58;;;;;;;7.95;3.92;;;;;;;17.66;38.83;103392.72;4994260;28;20034;-78
2022/01/23 00:58:24;;;;;;;5.55;4.03;;;;;;;17.57;38.87;103400.88;4995497;28;20022;-78
2022/01/23 01:00:49;;;;;;;7.05;4.20;;;;;;;17.58;38.89;103387.88;4995579;28;20030;-79
2022/01/23 01:03:15;;;;;;;7.25;4.57;;;;;;;17.55;38.90;103386.53;4993999;28;20041;-79
2022/01/23 01:05:41;;;;;;;8.50;4.80;;;;;;;17.55;38.80;103377.41;4995397;28;20504;-79
2022/01/23 01:08:06;;;;;;;9.15;4.60;;;;;;;17.54;38.73;103378.53;4995311;28;20026;-79
2022/01/23 01:10:50;;;;;;;10.15;5.53;;;;;;;17.53;38.73;103382.41;4995360;28;20533;-78
2022/01/23 01:13:16;;;;;;;23.88;6.78;;;;;;;17.51;38.84;103374.41;4995351;28;20026;-78
2022/01/23 01:16:00;;;;;;;6.35;5.40;;;;;;;17.51;38.69;103374.41;4995128;28;20492;-78
2022/01/23 01:32:41;;;;;;;10.32;6.18;;;;;;;17.48;38.56;103352.91;4995302;28;20038;-79
2022/01/23 01:35:34;;;;;;;8.02;6.30;;;;;;;17.49;38.52;103349.00;4994960;28;20122;-78
2022/01/23 01:37:54;;;;;;;9.93;5.93;;;;;;;17.44;38.73;103347.13;4994305;28;20046;-79
2022/01/23 01:40:22;;;;;;;8.38;5.53;;;;;;;17.46;38.64;103344.91;4994836;28;20030;-79
2022/01/23 01:42:48;;;;;;;8.55;5.40;;;;;;;17.45;38.79;103346.00;4993341;28;20116;-78
2022/01/23 01:45:19;;;;;;;8.52;5.55;;;;;;;17.40;38.41;103343.31;4994608;28;20030;-78
2022/01/23 01:47:50;;;;;;;9.70;5.80;;;;;;;17.35;38.56;103339.78;4993495;28;20249;-79
2022/01/23 01:50:16;;;;;;;8.05;5.13;;;;;;;17.39;38.34;103338.91;4993772;28;20437;-78
2022/01/23 01:52:42;;;;;;;8.50;6.18;;;;;;;17.41;38.27;103344.97;4994258;28;20038;-78
2022/01/23 01:55:11;;;;;;;10.25;5.40;;;;;;;17.43;38.26;103339.13;4994602;28;20030;-78
2022/01/23 01:57:43;;;;;;;10.80;5.90;;;;;;;17.41;38.41;103342.19;4994378;28;20092;-78
2022/01/23 02:00:13;;;;;;;7.72;5.07;;;;;;;17.37;38.16;103334.78;4994496;28;20026;-78
2022/01/23 02:10:46;;;;;;;9.55;5.53;;;;;;;17.28;38.34;103325.53;4994278;28;20108;-78
2022/01/23 02:13:15;;;;;;;9.73;5.53;;;;;;;17.29;38.25;103325.22;4994478;28;20026;-78
2022/01/23 02:16:16;;;;;;;7.70;5.15;;;;;;;17.29;38.13;103324.41;4994185;28;20425;-78
2022/01/23 02:54:24;;;;;;;6.82;4.70;;;;;;;17.17;38.05;103309.06;4993398;28;20113;-79
2022/01/23 02:56:54;;;;;;;5.82;3.88;;;;;;;17.15;37.97;103305.81;4992061;28;20539;-79
2022/01/23 02:59:29;;;;;;;8.85;4.55;;;;;;;17.14;38.12;103303.31;4993346;28;20161;-79
2022/01/23 03:04:24;;;;;;;8.20;4.07;;;;;;;17.15;38.20;103304.94;4993682;28;20038;-79
2022/01/23 03:06:58;;;;;;;6.43;4.60;;;;;;;17.13;37.97;103302.50;4993217;28;20030;-78
2022/01/23 03:14:40;;;;;;;5.55;3.88;;;;;;;17.06;38.10;103296.50;4993117;28;20062;-78
2022/01/23 03:28:15;;;;;;;10.38;5.25;;;;;;;16.99;38.15;103312.59;4992847;28;20072;-78
2022/01/23 03:30:50;;;;;;;8.32;4.18;;;;;;;16.99;38.25;103311.78;4992729;28;20034;-79
2022/01/23 03:33:16;;;;;;;9.20;4.40;;;;;;;16.98;38.15;103310.97;4992741;28;20037;-79
2022/01/23 03:35:41;;;;;;;7.35;3.97;;;;;;;16.91;38.22;103302.22;4992712;28;20023;-79
2022/01/23 03:38:07;;;;;;;5.85;3.80;;;;;;;16.96;38.16;103304.91;4992480;28;20056;-78
2022/01/23 03:40:32;;;;;;;10.13;4.30;;;;;;;16.96;38.04;103301.34;4992723;28;20033;-78
2022/01/23 03:43:08;;;;;;;7.20;3.95;;;;;;;16.95;38.08;103305.22;4992639;28;20471;-78
2022/01/23 03:50:38;;;;;;;7.93;4.00;;;;;;;16.94;37.88;103295.28;4992697;28;20038;-79
2022/01/23 03:53:05;;;;;;;7.82;4.05;;;;;;;16.92;37.89;103301.91;4992412;28;20113;-79
2022/01/23 03:55:31;;;;;;;7.43;4.50;;;;;;;16.92;37.95;103301.09;4992471;28;20025;-79
2022/01/23 03:57:57;;;;;;;9.18;4.60;;;;;;;16.86;38.05;103302.28;4991145;28;20038;-78
2022/01/23 04:00:23;;;;;;;7.53;4.30;;;;;;;16.88;38.03;103294.53;4992400;28;20022;-79
2022/01/23 04:02:49;;;;;;;7.07;3.88;;;;;;;16.85;38.24;103301.47;4992239;28;20117;-79
2022/01/23 04:05:15;;;;;;;8.25;4.10;;;;;;;16.80;38.25;103304.28;4992440;28;20138;-79
2022/01/23 04:07:40;;;;;;;7.88;4.32;;;;;;;16.77;38.08;103295.75;4992342;28;20042;-79
2022/01/23 04:10:07;;;;;;;7.72;4.28;;;;;;;16.78;37.96;103297.41;4992327;28;20541;-79
2022/01/23 04:34:17;;;;;;;11.15;5.35;;;;;;;16.64;37.81;103300.00;4995280;28;20041;-79
2022/01/23 05:01:29;;;;;;;10.98;7.05;;;;;;;16.47;37.48;103275.59;4995502;28;20555;-79
2022/01/23 05:06:45;;;;;;;7.10;5.03;;;;;;;16.48;37.34;103268.97;4995404;28;20036;-79
2022/01/23 05:09:11;;;;;;;7.30;5.22;;;;;;;16.45;37.37;103266.78;4995395;28;20531;-79
2022/01/23 05:11:43;;;;;;;7.82;4.85;;;;;;;16.33;37.25;103261.69;4995345;28;20037;-78
2022/01/23 05:14:09;;;;;;;5.78;4.72;;;;;;;16.35;37.17;103259.44;4995381;28;20117;-78
2022/01/23 05:16:35;;;;;;;5.75;4.82;;;;;;;16.33;37.16;103260.88;4994426;28;20034;-78
2022/01/23 05:19:02;;;;;;;5.43;4.65;;;;;;;16.42;36.97;103258.28;4995015;28;20031;-78
2022/01/23 05:24:12;;;;;;;8.57;4.28;;;;;;;16.45;36.83;103255.75;4995196;28;20084;-79
2022/01/23 05:26:43;;;;;;;5.82;4.80;;;;;;;16.47;36.89;103248.00;4994963;28;20023;-79
2022/01/23 05:29:10;;;;;;;7.00;4.72;;;;;;;16.46;36.92;103246.34;4995015;28;20037;-78
2022/01/23 05:31:36;;;;;;;6.35;5.25;;;;;;;16.46;36.84;103248.28;4994890;28;20037;-79
2022/01/23 05:34:02;;;;;;;9.02;4.88;;;;;;;16.48;37.22;103241.38;4994949;28;20038;-79
2022/01/23 05:36:28;;;;;;;5.60;4.68;;;;;;;16.50;36.91;103246.59;4994794;28;20399;-78
2022/01/23 05:38:53;;;;;;;6.30;4.55;;;;;;;16.52;36.92;103241.63;4994574;28;20050;-79
2022/01/23 05:41:21;;;;;;;5.72;4.75;;;;;;;16.48;37.10;103238.63;4993452;28;20054;-78
2022/01/23 05:43:46;;;;;;;8.45;4.68;;;;;;;16.49;36.96;103237.50;4993470;28;20034;-78
2022/01/23 05:46:12;;;;;;;8.93;4.75;;;;;;;16.51;36.91;103232.50;4994483;28;20490;-79
2022/01/23 05:48:38;;;;;;;9.57;4.63;;;;;;;16.44;37.03;103229.28;4994346;28;20404;-79
2022/01/23 05:51:05;;;;;;;6.57;4.13;;;;;;;16.47;36.94;103222.34;4994649;28;20501;-79
2022/01/23 05:53:31;;;;;;;5.80;4.22;;;;;;;16.46;36.96;103215.19;4994495;28;20034;-79
2022/01/23 05:55:56;;;;;;;8.18;3.90;;;;;;;16.38;36.85;103222.16;4994549;28;20091;-79
2022/01/23 05:58:22;;;;;;;7.07;4.10;;;;;;;16.33;37.08;103225.00;4994648;28;20490;-79
2022/01/23 06:00:48;;;;;;;9.15;5.22;;;;;;;16.33;37.02;103222.25;4994357;28;20068;-79
2022/01/23 06:03:13;;;;;;;8.40;4.13;;;;;;;16.38;37.11;103216.63;4993017;28;20124;-78
2022/01/23 06:05:39;;;;;;;6.13;4.10;;;;;;;16.40;36.92;103217.19;4994361;28;20072;-79
2022/01/23 06:08:04;;;;;;;7.95;4.40;;;;;;;16.38;37.01;103231.25;4994206;28;20030;-79
2022/01/23 06:10:46;;;;;;;5.72;3.95;;;;;;;16.32;36.94;103218.66;4994198;28;20037;-79
2022/01/23 06:13:11;;;;;;;6.07;3.63;;;;;;;16.34;37.01;103221.13;4994246;28;20547;-78
2022/01/23 06:15:37;;;;;;;11.10;4.75;;;;;;;16.31;36.97;103219.75;4994159;28;20030;-78
2022/01/23 06:18:03;;;;;;;4.63;3.47;;;;;;;16.26;37.06;103219.00;4994047;28;20026;-78
2022/01/23 06:20:28;;;;;;;4.90;4.05;;;;;;;16.26;37.15;103219.81;4992681;28;20101;-78
2022/01/23 06:22:54;;;;;;;8.90;4.47;;;;;;;16.20;36.99;103211.88;4992678;28;20038;-79
2022/01/23 06:25:20;;;;;;;7.28;3.67;;;;;;;16.25;37.04;103220.13;4994035;28;20030;-78
2022/01/23 06:27:46;;;;;;;10.32;3.42;;;;;;;16.18;36.97;103219.63;4993994;28;20092;-79
2022/01/23 06:30:12;;;;;;;15.48;4.60;;;;;;;16.24;36.94;103218.44;4993861;28;20056;-79
2022/01/23 06:32:38;;;;;;;6.10;3.72;;;;;;;16.23;36.99;103222.31;4993823;28;20061;-78
2022/01/23 06:35:04;;;;;;;5.15;3.50;;;;;;;16.24;36.91;103212.94;4992487;28;20117;-78
2022/01/23 06:37:30;;;;;;;9.43;3.90;;;;;;;16.27;36.80;103209.59;4993230;28;20105;-78
2022/01/23 06:39:56;;;;;;;5.75;3.65;;;;;;;16.17;36.94;103209.69;4993668;28;20488;-78
2022/01/23 06:42:21;;;;;;;10.43;3.78;;;;;;;16.12;37.24;103207.00;4993693;28;20042;-79
2022/01/23 06:44:47;;;;;;;6.70;3.85;;;;;;;16.20;36.89;103211.88;4993647;28;20026;-78
2022/01/23 06:47:12;;;;;;;9.43;3.55;;;;;;;16.22;36.94;103209.66;4993606;28;20098;-79
2022/01/23 06:49:38;;;;;;;6.82;3.13;;;;;;;16.22;36.84;103199.44;4993536;28;20425;-78
2022/01/23 06:52:04;;;;;;;5.95;3.50;;;;;;;16.19;37.08;103210.25;4993597;28;20084;-79
2022/01/23 06:54:29;;;;;;;8.05;3.17;;;;;;;16.23;36.73;103211.28;4993507;28;20552;-79
2022/01/23 06:56:55;;;;;;;11.60;4.82;;;;;;;16.16;37.05;103205.28;4993415;28;20034;-78
2022/01/23 06:59:21;;;;;;;4.65;3.22;;;;;;;16.12;37.20;103209.75;4993247;28;20105;-79
2022/01/23 07:01:47;;;;;;;5.78;3.20;;;;;;;16.16;36.95;103213.56;4993319;28;20034;-79
2022/01/23 07:04:12;;;;;;;6.00;3.00;;;;;;;16.13;37.25;103216.91;4993254;28;20035;-79
2022/01/23 07:06:38;;;;;;;4.90;3.17;;;;;;;16.15;36.81;103211.91;4993200;28;20026;-79
2022/01/23 07:09:04;;;;;;;10.38;4.68;;;;;;;16.08;37.12;103213.06;4993173;28;20054;-79
2022/01/23 07:11:29;;;;;;;10.02;3.92;;;;;;;16.09;37.35;103219.41;4993064;28;20041;-79
2022/01/23 07:13:55;;;;;;;6.93;3.90;;;;;;;16.02;37.27;103217.03;4993049;28;20038;-78
2022/01/23 07:16:20;;;;;;;6.43;3.50;;;;;;;16.13;37.20;103219.66;4993092;28;20030;-79
2022/01/23 07:18:46;;;;;;;5.18;2.90;;;;;;;16.09;37.27;103223.00;4991777;28;20185;-78
2022/01/23 07:21:12;;;;;;;8.00;3.45;;;;;;;16.06;37.34;103220.81;4993055;28;20026;-79
2022/01/23 07:23:37;;;;;;;8.02;3.50;;;;;;;16.09;37.28;103228.50;4991497;28;20030;-78
2022/01/23 07:26:07;;;;;;;6.22;3.40;;;;;;;16.09;37.35;103220.22;4992909;28;20036;-79
2022/01/23 07:28:39;;;;;;;6.60;3.92;;;;;;;16.12;37.15;103223.53;4992906;28;20041;-78
2022/01/23 07:31:07;;;;;;;8.48;3.78;;;;;;;16.14;37.10;103221.31;4992827;28;20172;-79
2022/01/23 07:33:35;;;;;;;6.95;3.75;;;;;;;16.17;37.44;103217.97;4992804;28;20026;-79
2022/01/23 07:36:01;;;;;;;13.57;4.35;;;;;;;16.05;37.37;103221.94;4992781;28;20050;-79
2022/01/23 07:38:27;;;;;;;5.85;3.35;;;;;;;16.10;37.30;103223.84;4992426;28;20100;-78
2022/01/23 07:40:53;;;;;;;8.85;3.55;;;;;;;16.06;37.55;103222.75;4992687;28;20031;-79
2022/01/23 07:43:18;;;;;;;7.30;3.65;;;;;;;16.10;37.26;103229.34;4992475;28;20432;-78
2022/01/23 07:45:44;;;;;;;5.85;3.35;;;;;;;16.08;37.33;103221.34;4992305;28;20030;-78
2022/01/23 07:48:10;;;;;;;4.93;2.92;;;;;;;16.08;37.15;103217.78;4991929;28;20030;-79
2022/01/23 07:50:36;;;;;;;10.73;3.97;;;;;;;16.04;37.22;103214.78;4992241;28;20034;-79
2022/01/23 07:53:03;;;;;;;9.18;4.13;;;;;;;16.12;37.11;103223.53;4992490;28;20466;-78
2022/01/23 07:55:29;;;;;;;5.32;3.97;;;;;;;16.17;37.01;103226.25;4992497;28;20034;-78
2022/01/23 07:58:02;;;;;;;7.85;3.60;;;;;;;16.19;36.83;103218.50;4991592;28;20030;-79
2022/01/23 08:00:28;;;;;;;17.88;5.18;;;;;;;16.18;36.88;103225.97;4979179;28;20034;-78
2022/01/23 08:02:54;;;;;;;10.02;3.70;;;;;;;16.17;36.88;103227.09;4980807;28;20387;-77
2022/01/23 08:05:19;;;;;;;7.43;3.70;;;;;;;16.18;36.80;103223.22;4979937;28;20074;-77
2022/01/23 08:07:45;;;;;;;5.45;3.15;;;;;;;16.20;36.95;103225.66;4982384;28;20026;-79
2022/01/23 08:10:11;;;;;;;7.70;3.45;;;;;;;16.15;36.77;103222.97;4991012;28;20030;-79
2022/01/23 08:12:37;;;;;;;6.93;3.47;;;;;;;16.20;36.99;103209.13;4981868;28;20038;-79
2022/01/23 08:15:04;;;;;;;5.88;3.08;;;;;;;16.17;36.98;103223.47;4982220;28;20037;-79
2022/01/23 08:17:30;;;;;;;8.48;4.32;;;;;;;16.15;36.95;103222.97;4991244;28;20038;-82
2022/01/23 08:19:59;;;;;;;5.38;3.63;;;;;;;16.19;36.93;103221.28;4991308;28;20769;-77
2022/01/23 08:22:26;;;;;;;15.02;4.18;;;;;;;16.14;36.98;103224.06;4991356;28;20073;-81
2022/01/23 08:24:54;;;;;;;7.90;3.58;;;;;;;16.18;36.88;103220.47;4989776;28;20042;-76
2022/01/23 08:27:20;;;;;;;6.15;3.47;;;;;;;16.16;37.04;103222.66;4993278;28;20022;-76
2022/01/23 08:29:46;;;;;;;8.60;4.57;;;;;;;16.06;37.13;103215.31;4991428;28;20485;-80
2022/01/23 08:32:12;;;;;;;12.25;4.38;;;;;;;16.13;36.90;103216.91;4981785;28;20061;-78
2022/01/23 08:34:39;;;;;;;10.48;4.28;;;;;;;16.14;36.97;103213.03;4981061;28;20466;-78
2022/01/23 08:37:06;;;;;;;8.95;4.07;;;;;;;16.16;36.90;103214.38;4990705;28;20504;-78
2022/01/23 08:39:36;;;;;;;25.10;5.65;;;;;;;16.08;37.02;103210.31;4988124;28;20108;-77
2022/01/23 08:42:16;;;;;;;7.75;3.60;;;;;;;16.11;37.01;103214.44;4988805;28;20050;-78
2022/01/23 08:44:43;;;;;;;7.40;3.67;;;;;;;16.13;37.03;103214.16;4990049;28;20029;-80
2022/01/23 08:47:09;;;;;;;11.40;4.40;;;;;;;16.14;36.91;103216.63;4989855;28;20030;-79
2022/01/23 08:49:44;;;;;;;8.73;3.40;;;;;;;16.18;36.89;103222.38;4983376;28;20023;-81
2022/01/23 08:52:11;;;;;;;6.00;3.05;;;;;;;16.22;36.75;103223.44;4992066;28;20022;-83
2022/01/23 08:54:37;;;;;;;10.35;4.32;;;;;;;16.20;36.88;103214.63;4983588;28;20029;-84
2022/01/23 08:57:03;;;;;;;11.32;4.80;;;;;;;16.19;37.10;103215.75;4990120;28;20038;-77
2022/01/23 08:59:28;;;;;;;6.32;3.92;;;;;;;16.08;37.23;103213.06;4989988;28;20033;-80
2022/01/23 09:01:54;;;;;;;9.40;3.63;;;;;;;16.05;37.38;103221.94;4995864;28;20110;-80
2022/01/23 09:04:19;;;;;;;5.30;3.53;;;;;;;16.14;37.10;103213.84;4984568;28;20034;-80
2022/01/23 09:06:46;;;;;;;8.73;3.83;;;;;;;16.09;37.04;103222.16;4977219;28;20038;-79
2022/01/23 09:09:18;;;;;;;9.52;3.95;;;;;;;16.07;37.09;103214.19;4975279;28;20426;-78
2022/01/23 09:11:58;;;;;;;8.32;4.03;;;;;;;16.13;37.23;103222.44;4976133;28;20030;-78
2022/01/23 09:14:25;;;;;;;10.55;4.18;;;;;;;16.15;37.12;103225.72;4975151;28;20035;-78
2022/01/23 09:16:52;;;;;;;15.88;5.10;;;;;;;16.09;37.19;103211.13;4974617;28;20142;-78
2022/01/23 09:19:20;;;;;;;13.70;4.32;;;;;;;16.08;37.17;103221.34;4975961;28;20030;-78
2022/01/23 09:21:49;;;;;;;13.82;4.90;;;;;;;16.12;37.29;103216.09;4976195;28;20046;-78
2022/01/23 09:24:16;;;;;;;6.15;2.88;;;;;;;16.19;37.04;103219.34;4995203;28;20034;-79
2022/01/23 09:26:42;;;;;;;8.25;3.28;;;;;;;16.23;37.18;103217.63;4992378;28;20409;-79
2022/01/23 09:29:23;;;;;;;5.75;3.47;;;;;;;16.14;37.23;103218.56;4981083;28;20026;-78
2022/01/23 09:31:49;;;;;;;10.20;4.40;;;;;;;16.23;36.92;103223.13;4999249;28;20108;-79
2022/01/23 09:34:20;;;;;;;9.73;3.65;;;;;;;16.27;37.04;103226.16;4985622;28;20041;-80
2022/01/23 09:36:45;;;;;;;17.48;4.75;;;;;;;16.11;37.26;103216.38;4977812;28;20046;-77
2022/01/23 09:39:15;;;;;;;9.88;4.78;;;;;;;16.22;37.17;103226.19;4986252;28;20048;-76
2022/01/23 09:41:46;;;;;;;5.63;3.63;;;;;;;16.28;36.83;103214.00;4998228;28;20054;-78
2022/01/23 09:44:17;;;;;;;24.13;5.57;;;;;;;16.30;37.03;103214.53;4983269;28;20138;-77
2022/01/23 09:46:44;;;;;;;26.08;5.57;;;;;;;16.18;37.48;103220.47;4978026;28;20046;-77
2022/01/23 09:49:12;;;;;;;17.15;5.00;;;;;;;16.26;37.06;103216.25;4979750;28;20089;-77
2022/01/23 09:51:42;;;;;;;32.88;5.78;;;;;;;16.27;37.10;103220.63;4991781;28;20124;-77
2022/01/23 09:54:14;;;;;;;8.05;3.28;;;;;;;16.34;37.01;103212.84;4981079;28;20087;-76
2022/01/23 09:56:41;;;;;;;11.35;3.85;;;;;;;16.40;36.80;103214.44;4980158;28;20030;-77
2022/01/23 09:59:12;;;;;;;32.45;5.88;;;;;;;16.35;36.75;103218.06;4986248;28;20564;-76
2022/01/23 10:01:40;;;;;;;12.60;3.75;;;;;;;16.43;36.99;103215.78;4994077;28;20077;-76
2022/01/23 10:04:06;;;;;;;5.18;3.15;;;;;;;16.48;36.88;103211.03;4992142;28;20061;-76
2022/01/23 10:06:32;;;;;;;17.58;3.55;;;;;;;16.48;36.90;103210.22;4991704;28;20060;-76
2022/01/23 10:08:59;;;;;;;19.92;5.13;;;;;;;16.48;36.89;103216.56;4993759;28;20473;-77
2022/01/23 10:11:29;;;;;;;7.00;3.13;;;;;;;16.57;36.78;103219.47;4993092;28;20516;-78
2022/01/23 10:13:55;;;;;;;4.18;2.70;;;;;;;16.62;36.60;103220.25;4983306;28;20102;-79
2022/01/23 10:16:21;;;;;;;9.18;3.20;;;;;;;16.67;36.69;103215.78;4985007;28;20060;-76
2022/01/23 10:18:48;;;;;;;23.05;5.60;;;;;;;16.58;36.94;103219.19;4986907;28;20026;-79
2022/01/23 10:21:14;;;;;;;8.90;3.58;;;;;;;16.68;36.65;103212.72;4984812;28;20030;-79
2022/01/23 10:23:41;;;;;;;23.38;5.53;;;;;;;16.65;36.53;103211.38;4984097;28;20132;-82
2022/01/23 10:26:07;;;;;;;6.00;2.97;;;;;;;16.72;36.74;103213.00;4984087;28;20034;-81
2022/01/23 10:28:35;;;;;;;29.42;6.97;;;;;;;16.63;36.78;103210.84;4985009;28;20038;-79
2022/01/23 10:31:04;;;;;;;25.20;5.22;;;;;;;16.60;36.80;103194.88;4981462;28;20045;-80
2022/01/23 10:33:34;;;;;;;16.23;3.63;;;;;;;16.57;36.95;103198.22;4984174;28;20481;-76
2022/01/23 10:36:11;;;;;;;20.02;3.83;;;;;;;16.60;36.83;103199.56;4996152;28;20051;-78
2022/01/23 10:38:51;;;;;;;31.63;7.13;;;;;;;16.64;36.61;103203.41;4983174;28;20034;-76
2022/01/23 10:49:56;;;;;;;34.47;8.48;;;;;;;16.51;36.95;103195.81;4985695;28;20041;-76
2022/01/23 10:52:38;;;;;;;8.88;3.00;;;;;;;16.72;36.81;103196.44;4985665;28;20107;-78
2022/01/23 10:55:26;;;;;;;11.50;3.90;;;;;;;16.73;36.66;103190.59;4983923;28;20114;-79
2022/01/23 10:57:54;;;;;;;42.20;8.38;;;;;;;16.64;36.81;103184.06;4984935;28;20061;-77
2022/01/23 11:00:21;;;;;;;11.77;4.38;;;;;;;16.81;36.62;103197.41;4993104;28;20037;-78
2022/01/23 11:02:47;;;;;;;24.98;5.28;;;;;;;16.80;37.07;103201.28;4991303;28;20035;-78
2022/01/23 11:05:15;;;;;;;16.92;5.13;;;;;;;16.80;36.83;103201.28;4993246;28;20030;-78
2022/01/23 11:07:44;;;;;;;17.38;6.45;;;;;;;16.83;36.82;103203.44;4991046;28;20034;-76
2022/01/23 11:10:13;;;;;;;14.45;4.00;;;;;;;16.84;36.89;103200.38;4989119;28;20484;-75
2022/01/23 11:18:38;;;;;;;17.05;5.45;;;;;;;16.89;36.88;103194.00;4975150;28;20049;-76
2022/01/23 11:21:21;;;;;;;26.47;6.40;;;;;;;16.89;36.70;103182.94;4987089;28;20045;-74
2022/01/23 11:23:55;;;;;;;40.42;7.82;;;;;;;16.82;36.83;103183.31;4990324;28;20034;-73
2022/01/23 11:26:25;;;;;;;10.32;4.30;;;;;;;16.89;36.96;103177.41;4994587;28;20033;-75
2022/01/23 11:28:50;;;;;;;22.90;6.40;;;;;;;16.99;36.61;103177.28;4977143;28;20037;-75
2022/01/23 11:31:18;;;;;;;10.35;4.25;;;;;;;16.90;37.02;103176.28;4974968;28;20030;-74
2022/01/23 11:33:46;;;;;;;6.13;3.90;;;;;;;16.92;36.71;103169.34;4981270;28;20026;-74
2022/01/23 11:36:12;;;;;;;27.13;7.78;;;;;;;16.99;36.83;103168.97;4995345;28;20121;-73
2022/01/23 11:38:43;;;;;;;32.75;6.63;;;;;;;17.02;36.60;103170.34;4994766;28;20041;-74
2022/01/23 11:55:35;;;;;;;28.25;6.68;;;;;;;17.00;36.65;103153.22;4992952;28;20072;-74
2022/01/23 11:58:04;;;;;;;37.83;6.75;;;;;;;17.07;36.64;103150.91;4990741;28;20392;-76
2022/01/23 12:00:34;;;;;;;42.05;7.55;;;;;;;16.82;36.86;103146.59;4983652;28;20085;-76
2022/01/23 12:03:11;;;;;;;;;;;;;;;17.06;36.67;103150.09;4988969;28;20507;-75
2022/01/23 12:05:39;;;;;;;45.28;9.27;;;;;;;17.04;36.68;103149.59;4989377;28;19961;-75
2022/01/23 12:08:31;;;;;;;37.72;5.70;;;;;;;17.07;36.36;103134.34;4992083;28;20034;-75
2022/01/23 12:16:27;;;;;;;8.00;2.20;;;;;;;17.05;36.71;103128.31;4983346;28;20062;-74
2022/01/23 12:19:22;;;;;;;91.32;14.68;;;;;;;17.06;36.50;103125.25;4983231;28;20038;-74
2022/01/23 12:21:50;;;;;;;24.08;4.90;;;;;;;17.19;36.40;103120.91;4990217;28;20113;-73
2022/01/23 12:24:18;;;;;;;10.55;3.40;;;;;;;17.29;36.39;103115.22;4990573;28;20117;-73
2022/01/23 12:26:47;;;;;;;21.98;4.13;;;;;;;17.10;36.50;103112.50;4990570;28;20529;-75
2022/01/23 12:29:17;;;;;;;10.70;2.47;;;;;;;17.23;36.57;103113.69;4987675;28;20034;-75
2022/01/23 12:31:43;;;;;;;;;;;;;;;17.15;36.66;103115.19;4978163;28;20101;-75
2022/01/23 12:34:09;;;;;;;18.67;3.80;;;;;;;17.27;36.58;103102.84;4991940;28;19918;-74
2022/01/23 12:36:43;;;;;;;89.38;17.25;;;;;;;17.29;36.46;103108.88;4994073;28;20022;-75
2022/01/23 12:39:09;;;;;;;26.73;5.03;;;;;;;17.43;36.41;103101.44;4984521;28;20044;-75
2022/01/23 12:41:35;;;;;;;8.73;2.00;;;;;;;17.43;36.22;103096.75;4990695;28;20042;-75
2022/01/23 12:44:37;;;;;;;28.50;5.30;;;;;;;17.39;36.25;103090.19;4994247;28;20034;-76
2022/01/23 12:47:06;;;;;;;39.95;7.40;;;;;;;17.32;36.51;103094.47;4954097;28;20019;-76
2022/01/23 12:49:38;;;;;;;46.03;8.65;;;;;;;17.39;36.27;103087.44;4987773;28;20445;-76
2022/01/23 12:52:09;;;;;;;26.88;5.45;;;;;;;17.29;36.15;103081.25;4995005;28;20551;-74
2022/01/23 12:54:50;;;;;;;31.77;6.13;;;;;;;17.17;36.45;103081.72;4992562;28;20042;-74
2022/01/23 12:57:24;;;;;;;15.52;4.03;;;;;;;17.25;36.66;103082.97;4993991;28;20026;-75
2022/01/23 12:59:56;;;;;;;15.10;2.75;;;;;;;17.35;36.25;103085.56;4991448;28;20023;-75
2022/01/23 13:02:26;;;;;;;20.60;4.45;;;;;;;17.42;36.21;103077.69;4995171;28;20049;-75
2022/01/23 13:04:53;;;;;;;17.77;4.00;;;;;;;17.42;36.41;103074.94;4993018;28;20027;-75
2022/01/23 13:07:38;;;;;;;13.27;4.07;;;;;;;17.33;36.34;103065.72;4995181;28;20103;-74
2022/01/23 13:10:30;;;;;;;14.93;3.67;;;;;;;17.41;36.50;103065.84;4994832;28;20018;-74
2022/01/23 13:18:19;;;;;;;25.17;4.95;;;;;;;17.28;36.79;103063.03;4995283;28;20061;-75
2022/01/23 13:31:51;;;;;;;25.67;5.13;;;;;;;17.42;36.42;103052.84;4995723;28;20041;-77
2022/01/23 13:34:25;;;;;;;62.25;9.88;;;;;;;17.32;36.69;103055.78;4981933;28;20084;-77
2022/01/23 13:36:57;;;;;;;13.35;3.38;;;;;;;17.39;36.63;103058.97;4996265;28;20560;-77
2022/01/23 13:39:29;;;;;;;32.25;6.40;;;;;;;17.42;36.58;103039.84;4999979;28;20106;-77
2022/01/23 13:42:18;;;;;;;21.90;3.63;;;;;;;17.33;36.55;103047.19;4999416;28;20037;-77
2022/01/23 13:53:31;;;;;;;34.50;15.75;;;;;;;17.49;36.67;103020.09;5015021;28;20049;-77
2022/01/23 13:58:42;;;;;;;21.58;4.97;;;;;;;17.38;36.67;103025.00;5015363;28;20036;-77
2022/01/23 14:01:34;;;;;;;19.35;4.80;;;;;;;17.51;36.50;103019.78;5014799;28;20104;-77
2022/01/23 14:03:55;;;;;;;14.80;4.28;;;;;;;17.45;36.59;103019.88;5014509;28;20453;-76
2022/01/23 14:06:21;;;;;;;25.08;5.60;;;;;;;17.45;36.48;103016.28;5014763;28;20068;-77
2022/01/23 14:09:05;;;;;;;22.33;5.38;;;;;;;17.41;36.69;103020.78;5014628;28;20036;-77
2022/01/23 14:11:32;;;;;;;34.67;5.97;;;;;;;17.40;36.50;103017.22;5013417;28;20025;-77
2022/01/23 14:14:21;;;;;;;15.40;4.85;;;;;;;17.49;36.47;103017.31;5013493;28;20129;-77
2022/01/23 14:16:49;;;;;;;16.33;4.72;;;;;;;17.38;36.42;103019.47;5014490;28;20026;-77
2022/01/23 14:19:23;;;;;;;25.33;6.07;;;;;;;17.45;36.42;103008.81;5014478;28;20060;-77
2022/01/23 14:21:56;;;;;;;16.45;3.50;;;;;;;17.28;36.79;103013.28;5014444;28;20502;-76
2022/01/23 14:24:32;;;;;;;10.73;3.22;;;;;;;17.41;36.61;103015.28;5014537;28;20030;-77
2022/01/23 14:27:11;;;;;;;16.73;3.75;;;;;;;17.30;36.39;103019.31;5014304;28;20030;-77
2022/01/23 14:29:55;;;;;;;21.85;4.32;;;;;;;17.25;36.54;103011.97;5010167;28;20026;-77
2022/01/23 14:35:06;;;;;;;24.00;6.25;;;;;;;17.11;36.68;103022.16;4998064;28;20460;-76
2022/01/23 14:37:32;;;;;;;26.35;4.55;;;;;;;17.33;36.18;103014.03;4995230;28;20500;-78
2022/01/23 14:40:08;;;;;;;18.58;4.63;;;;;;;17.31;36.28;103010.75;4978170;28;20081;-77
2022/01/23 14:42:33;;;;;;;12.80;4.10;;;;;;;17.28;36.55;103011.34;4983212;28;20034;-77
2022/01/23 14:45:03;;;;;;;12.57;4.75;;;;;;;17.27;36.41;102998.66;4988991;28;20444;-78
2022/01/23 14:47:34;;;;;;;;;;;;;;;17.07;36.64;102993.47;4978389;28;20033;-77
2022/01/23 14:50:00;;;;;;;17.92;4.85;;;;;;;17.31;36.34;102990.59;4990308;28;20052;-77
2022/01/23 14:52:26;;;;;;;31.52;7.30;;;;;;;17.32;36.42;102983.94;4981946;28;20050;-77
2022/01/23 14:54:52;;;;;;;10.90;3.50;;;;;;;17.33;36.47;102977.28;4994091;28;20054;-77
2022/01/23 14:57:19;;;;;;;14.70;4.18;;;;;;;17.40;36.18;102970.22;4993806;28;20068;-77